createdAt,value
2022-11-26T00:01:01.350Z,4.09
2022-11-26T00:03:47.306Z,3.98
2022-11-26T00:06:39.326Z,3.90
2022-11-26T00:09:25.096Z,3.88
2022-11-26T00:12:22.057Z,3.86
2022-11-26T00:15:26.722Z,4.09
2022-11-26T00:18:13.053Z,4.07
2022-11-26T00:21:01.082Z,4.06
2022-11-26T00:23:46.176Z,4.00
2022-11-26T00:26:32.251Z,4.07
2022-11-26T00:29:17.538Z,4.09
2022-11-26T00:32:02.773Z,4.03
2022-11-26T00:34:48.167Z,3.94
2022-11-26T00:37:40.931Z,3.95
2022-11-26T00:40:28.810Z,3.81
2022-11-26T00:43:15.515Z,3.79
2022-11-26T00:46:00.612Z,3.78
2022-11-26T00:48:45.945Z,3.70
2022-11-26T00:51:31.256Z,3.84
2022-11-26T00:54:18.490Z,3.92
2022-11-26T00:57:03.662Z,3.91
2022-11-26T00:59:48.847Z,3.92
2022-11-26T01:02:33.773Z,4.00
2022-11-26T01:05:20.352Z,3.81
2022-11-26T01:08:20.457Z,3.93
2022-11-26T01:11:05.951Z,3.86
2022-11-26T01:13:52.727Z,3.87
2022-11-26T01:16:42.073Z,3.97
2022-11-26T01:19:27.289Z,3.79
2022-11-26T01:22:21.083Z,3.87
2022-11-26T01:25:06.611Z,3.87
2022-11-26T01:27:52.545Z,3.75
2022-11-26T01:30:38.095Z,3.67
2022-11-26T01:33:23.353Z,3.63
2022-11-26T01:36:28.007Z,3.62
2022-11-26T01:39:19.819Z,3.69
2022-11-26T01:42:32.748Z,3.89
2022-11-26T01:45:20.538Z,3.89
2022-11-26T01:48:28.331Z,3.81
2022-11-26T01:51:15.465Z,3.86
2022-11-26T01:54:00.982Z,3.79
2022-11-26T01:56:52.713Z,3.74
2022-11-26T01:59:42.056Z,3.56
2022-11-26T02:02:29.826Z,3.56
2022-11-26T02:05:20.733Z,3.50
2022-11-26T02:08:06.755Z,3.45
2022-11-26T02:10:52.466Z,3.48
2022-11-26T02:13:37.281Z,3.50
2022-11-26T02:16:40.022Z,3.59
2022-11-26T02:19:49.764Z,3.64
2022-11-26T02:22:43.574Z,3.71
2022-11-26T02:26:07.722Z,3.73
2022-11-26T02:29:20.479Z,3.62
2022-11-26T02:32:13.839Z,3.76
2022-11-26T02:35:06.566Z,3.68
2022-11-26T02:37:55.901Z,3.86
2022-11-26T02:40:41.425Z,3.94
2022-11-26T02:43:27.089Z,3.97
2022-11-26T02:46:18.487Z,3.99
2022-11-26T02:49:04.227Z,4.04
2022-11-26T02:51:54.502Z,4.11
2022-11-26T02:54:41.438Z,4.09
2022-11-26T02:57:30.494Z,4.11
2022-11-26T03:00:16.681Z,4.07
2022-11-26T03:03:08.764Z,4.16
2022-11-26T03:05:58.122Z,4.23
2022-11-26T03:08:45.269Z,4.31
2022-11-26T03:11:30.530Z,4.33
2022-11-26T03:14:15.747Z,4.31
2022-11-26T03:17:00.731Z,4.38
2022-11-26T03:19:46.541Z,4.42
2022-11-26T03:22:31.655Z,4.25
2022-11-26T03:25:16.935Z,4.33
2022-11-26T03:28:02.881Z,4.34
2022-11-26T03:30:50.994Z,4.41
2022-11-26T03:33:35.880Z,4.32
2022-11-26T03:36:21.964Z,4.29
2022-11-26T03:39:07.074Z,4.23
2022-11-26T03:41:52.282Z,4.25
2022-11-26T03:44:37.556Z,4.25
2022-11-26T03:47:22.715Z,4.16
2022-11-26T03:50:08.820Z,4.35
2022-11-26T03:52:53.719Z,4.36
2022-11-26T03:55:38.880Z,4.37
2022-11-26T03:58:23.828Z,4.49
2022-11-26T04:01:12.879Z,4.38
2022-11-26T04:03:58.003Z,4.29
2022-11-26T04:06:43.312Z,4.28
2022-11-26T04:09:28.222Z,4.19
2022-11-26T04:12:13.282Z,4.37
2022-11-26T04:14:58.333Z,4.33
2022-11-26T04:17:43.243Z,4.34
2022-11-26T04:20:28.628Z,4.18
2022-11-26T04:23:13.874Z,4.36
2022-11-26T04:25:58.836Z,4.33
2022-11-26T04:28:44.526Z,4.38
2022-11-26T04:31:29.652Z,4.30
2022-11-26T04:34:14.797Z,4.31
2022-11-26T04:36:59.802Z,4.13
2022-11-26T04:39:44.828Z,4.20
2022-11-26T04:42:29.812Z,4.16
2022-11-26T04:45:15.257Z,4.11
2022-11-26T04:48:00.520Z,4.09
2022-11-26T04:50:45.861Z,4.12
2022-11-26T04:53:31.222Z,4.07
2022-11-26T04:56:16.404Z,4.07
2022-11-26T04:59:01.444Z,4.09
2022-11-26T05:01:47.442Z,4.12
2022-11-26T05:04:32.840Z,4.12
2022-11-26T05:07:18.043Z,4.09
2022-11-26T05:10:05.000Z,4.09
2022-11-26T05:12:50.198Z,4.12
2022-11-26T05:15:35.469Z,4.20
2022-11-26T05:18:20.776Z,4.18
2022-11-26T05:21:06.649Z,4.20
2022-11-26T05:23:51.944Z,4.22
2022-11-26T05:26:37.120Z,4.23
2022-11-26T05:29:22.306Z,4.30
2022-11-26T05:32:07.452Z,4.27
2022-11-26T05:34:55.679Z,4.32
2022-11-26T05:37:43.529Z,4.26
2022-11-26T05:40:28.889Z,4.33
2022-11-26T05:43:14.009Z,4.35
2022-11-26T05:46:07.675Z,4.39
2022-11-26T05:48:53.105Z,4.42
2022-11-26T05:51:38.320Z,4.46
2022-11-26T05:54:23.288Z,4.39
2022-11-26T05:57:08.618Z,4.32
2022-11-26T05:59:53.906Z,4.52
2022-11-26T06:02:39.616Z,4.50
2022-11-26T06:05:24.760Z,4.41
2022-11-26T06:08:10.062Z,4.32
2022-11-26T06:10:55.322Z,4.42
2022-11-26T06:13:40.565Z,4.48
2022-11-26T06:16:25.592Z,4.45
2022-11-26T06:19:11.568Z,4.38
2022-11-26T06:21:56.559Z,4.40
2022-11-26T06:24:41.540Z,4.43
2022-11-26T06:27:26.552Z,4.33
2022-11-26T06:30:12.246Z,4.36
2022-11-26T06:32:57.331Z,4.46
2022-11-26T06:35:42.392Z,4.61
2022-11-26T06:38:28.231Z,4.50
2022-11-26T06:41:13.641Z,4.59
2022-11-26T06:43:59.986Z,4.63
2022-11-26T06:46:45.179Z,4.66
2022-11-26T06:49:30.781Z,4.65
2022-11-26T06:52:15.685Z,4.59
2022-11-26T06:55:00.744Z,4.57
2022-11-26T06:57:49.532Z,4.67
2022-11-26T07:00:34.717Z,4.74
2022-11-26T07:03:23.784Z,4.68
2022-11-26T07:06:23.962Z,4.57
2022-11-26T07:09:10.511Z,4.71
2022-11-26T07:11:55.584Z,4.59
2022-11-26T07:14:40.656Z,4.75
2022-11-26T07:17:27.965Z,4.63
2022-11-26T07:20:14.193Z,4.35
2022-11-26T07:22:59.336Z,4.49
2022-11-26T07:25:44.541Z,4.53
2022-11-26T07:28:30.039Z,4.55
2022-11-26T07:31:18.684Z,4.55
2022-11-26T07:34:04.078Z,4.53
2022-11-26T07:36:49.623Z,4.42
2022-11-26T07:39:34.877Z,4.44
2022-11-26T07:42:20.247Z,4.40
2022-11-26T07:45:05.763Z,4.35
2022-11-26T07:47:51.017Z,4.35
2022-11-26T07:50:36.181Z,4.34
2022-11-26T07:53:21.169Z,4.39
2022-11-26T07:56:06.569Z,4.32
2022-11-26T07:58:52.049Z,4.39
2022-11-26T08:01:37.364Z,4.47
2022-11-26T08:04:22.510Z,4.49
2022-11-26T08:07:07.950Z,4.49
2022-11-26T08:09:52.899Z,4.45
2022-11-26T08:12:37.993Z,4.58
2022-11-26T08:15:23.253Z,4.54
2022-11-26T08:18:08.508Z,4.59
2022-11-26T08:20:58.007Z,4.62
2022-11-26T08:23:43.184Z,4.59
2022-11-26T08:26:35.075Z,4.64
2022-11-26T08:29:21.415Z,4.68
2022-11-26T08:32:06.577Z,4.68
2022-11-26T08:34:51.793Z,4.72
2022-11-26T08:37:36.819Z,4.75
2022-11-26T08:40:21.718Z,4.81
2022-11-26T08:43:09.852Z,4.83
2022-11-26T08:45:57.013Z,4.91
2022-11-26T08:48:42.435Z,4.87
2022-11-26T08:51:27.421Z,5.68
2022-11-26T08:54:12.803Z,5.44
2022-11-26T08:56:58.151Z,5.25
2022-11-26T08:59:43.386Z,5.21
2022-11-26T09:02:28.379Z,5.17
2022-11-26T09:05:13.622Z,5.19
2022-11-26T09:07:58.932Z,5.21
2022-11-26T09:10:53.496Z,5.22
2022-11-26T09:13:38.395Z,5.20
2022-11-26T09:16:24.531Z,5.16
2022-11-26T09:19:12.167Z,5.31
2022-11-26T09:21:58.557Z,5.34
2022-11-26T09:24:43.898Z,5.44
2022-11-26T09:27:29.009Z,5.52
2022-11-26T09:30:16.161Z,5.56
2022-11-26T09:33:01.466Z,5.52
2022-11-26T09:35:46.588Z,5.70
2022-11-26T09:38:31.755Z,5.77
2022-11-26T09:41:32.263Z,5.78
2022-11-26T09:44:26.487Z,5.87
2022-11-26T09:47:17.635Z,5.97
2022-11-26T09:50:17.519Z,6.05
2022-11-26T09:53:12.936Z,6.15
2022-11-26T09:56:00.561Z,6.27
2022-11-26T09:58:49.876Z,6.34
2022-11-26T10:01:34.823Z,6.42
2022-11-26T10:04:31.474Z,6.55
2022-11-26T10:08:03.950Z,6.59
2022-11-26T10:11:01.180Z,6.85
2022-11-26T10:14:04.274Z,7.07
2022-11-26T10:17:20.182Z,7.24
2022-11-26T10:20:21.941Z,7.43
2022-11-26T10:23:13.325Z,7.51
2022-11-26T10:26:27.170Z,7.61
2022-11-26T10:29:21.197Z,7.87
2022-11-26T10:32:14.592Z,8.05
2022-11-26T10:35:00.346Z,8.24
2022-11-26T10:37:45.351Z,8.23
2022-11-26T10:40:32.191Z,8.73
2022-11-26T10:43:21.413Z,9.00
2022-11-26T10:46:06.809Z,9.26
2022-11-26T10:48:52.172Z,9.47
2022-11-26T10:51:37.717Z,9.63
2022-11-26T10:54:35.386Z,9.80
2022-11-26T10:57:20.654Z,9.86
2022-11-26T11:00:06.460Z,9.95
2022-11-26T11:02:51.669Z,10.00
2022-11-26T11:05:37.164Z,10.00
2022-11-26T11:08:31.058Z,10.09
2022-11-26T11:11:25.773Z,10.16
2022-11-26T11:14:29.057Z,10.23
2022-11-26T11:17:39.909Z,10.29
2022-11-26T11:20:34.806Z,10.27
2022-11-26T11:23:35.020Z,10.41
2022-11-26T11:26:43.547Z,10.37
2022-11-26T11:29:28.600Z,10.48
2022-11-26T11:32:34.542Z,10.58
2022-11-26T11:35:19.583Z,10.62
2022-11-26T11:38:04.865Z,10.66
2022-11-26T11:40:50.859Z,10.69
2022-11-26T11:43:37.253Z,10.73
2022-11-26T11:46:22.472Z,10.70
2022-11-26T11:49:07.353Z,10.81
2022-11-26T11:51:58.130Z,10.87
2022-11-26T11:55:01.826Z,10.90
2022-11-26T11:58:17.796Z,10.95
2022-11-26T12:01:40.596Z,11.02
2022-11-26T12:04:56.505Z,10.97
2022-11-26T12:07:52.738Z,11.05
2022-11-26T12:11:02.403Z,11.09
2022-11-26T12:13:52.139Z,11.14
2022-11-26T12:16:42.418Z,11.18
2022-11-26T12:19:39.550Z,11.18
2022-11-26T12:22:49.618Z,11.21
2022-11-26T12:25:37.469Z,11.26
2022-11-26T12:28:27.241Z,11.27
2022-11-26T12:31:24.064Z,11.30
2022-11-26T12:34:23.875Z,11.29
2022-11-26T12:37:21.617Z,11.29
2022-11-26T12:40:39.055Z,11.29
2022-11-26T12:43:43.151Z,11.30
2022-11-26T12:46:42.766Z,11.15
2022-11-26T12:49:35.647Z,11.31
2022-11-26T12:52:47.140Z,11.30
2022-11-26T12:55:41.667Z,11.35
2022-11-26T12:58:56.527Z,11.37
2022-11-26T13:01:41.545Z,11.38
2022-11-26T13:04:43.793Z,11.36
2022-11-26T13:07:41.178Z,11.40
2022-11-26T13:10:33.581Z,11.40
2022-11-26T13:13:42.369Z,11.39
2022-11-26T13:16:40.869Z,11.38
2022-11-26T13:19:34.312Z,11.31
2022-11-26T13:22:48.339Z,11.40
2022-11-26T13:26:04.737Z,11.41
2022-11-26T13:28:52.650Z,11.46
2022-11-26T13:31:50.064Z,11.41
2022-11-26T13:35:00.930Z,11.37
2022-11-26T13:37:55.133Z,11.38
2022-11-26T13:40:46.381Z,11.42
2022-11-26T13:44:07.042Z,11.40
2022-11-26T13:47:06.241Z,11.39
2022-11-26T13:50:17.523Z,11.25
2022-11-26T13:53:06.414Z,11.29
2022-11-26T13:55:59.175Z,11.30
2022-11-26T13:58:49.355Z,11.34
2022-11-26T14:01:42.145Z,11.35
2022-11-26T14:04:47.553Z,11.31
2022-11-26T14:07:37.700Z,11.29
2022-11-26T14:10:35.097Z,11.24
2022-11-26T14:13:20.027Z,11.17
2022-11-26T14:16:09.609Z,11.26
2022-11-26T14:18:58.800Z,11.28
2022-11-26T14:21:58.255Z,11.26
2022-11-26T14:24:49.735Z,11.38
2022-11-26T14:27:40.267Z,11.51
2022-11-26T14:30:27.423Z,11.57
2022-11-26T14:33:18.933Z,11.54
2022-11-26T14:36:18.382Z,11.57
2022-11-26T14:39:12.868Z,11.60
2022-11-26T14:42:04.139Z,11.60
2022-11-26T14:45:17.043Z,11.57
2022-11-26T14:48:03.982Z,11.68
2022-11-26T14:50:49.083Z,11.78
2022-11-26T14:53:35.911Z,11.67
2022-11-26T14:56:24.081Z,11.68
2022-11-26T14:59:15.246Z,11.45
2022-11-26T15:02:00.632Z,11.78
2022-11-26T15:04:46.054Z,11.70
2022-11-26T15:07:31.810Z,11.73
2022-11-26T15:10:20.123Z,11.73
2022-11-26T15:13:12.972Z,11.66
2022-11-26T15:16:03.516Z,11.69
2022-11-26T15:18:52.764Z,11.64
2022-11-26T15:21:40.732Z,11.69
2022-11-26T15:24:26.961Z,11.68
2022-11-26T15:27:29.567Z,11.63
2022-11-26T15:30:19.127Z,11.63
2022-11-26T15:33:04.255Z,11.65
2022-11-26T15:35:56.769Z,11.67
2022-11-26T15:39:08.980Z,11.70
2022-11-26T15:41:56.644Z,11.65
2022-11-26T15:44:42.938Z,11.71
2022-11-26T15:47:29.073Z,11.67
2022-11-26T15:50:36.435Z,11.76
2022-11-26T15:53:28.775Z,11.72
2022-11-26T15:56:20.957Z,11.84
2022-11-26T15:59:14.823Z,11.79
2022-11-26T16:02:14.517Z,11.63
2022-11-26T16:05:03.526Z,11.59
2022-11-26T16:08:21.851Z,11.48
2022-11-26T16:11:19.323Z,11.33
2022-11-26T16:14:23.123Z,11.14
2022-11-26T16:17:16.624Z,11.04
2022-11-26T16:20:01.942Z,10.98
2022-11-26T16:22:49.743Z,10.94
2022-11-26T16:25:36.179Z,10.92
2022-11-26T16:28:21.211Z,10.87
2022-11-26T16:31:06.671Z,10.88
2022-11-26T16:33:51.971Z,10.87
2022-11-26T16:36:41.981Z,10.79
2022-11-26T16:39:30.179Z,10.85
2022-11-26T16:42:23.567Z,10.86
2022-11-26T16:45:09.976Z,10.84
2022-11-26T16:47:55.743Z,10.83
2022-11-26T16:50:40.590Z,10.80
2022-11-26T16:53:25.614Z,10.64
2022-11-26T16:56:26.696Z,10.80
2022-11-26T16:59:19.341Z,10.84
2022-11-26T17:02:06.571Z,10.78
2022-11-26T17:04:52.137Z,10.85
2022-11-26T17:07:46.694Z,10.85
2022-11-26T17:10:31.867Z,10.83
2022-11-26T17:13:17.694Z,10.85
2022-11-26T17:16:04.302Z,10.76
2022-11-26T17:18:50.124Z,10.78
2022-11-26T17:21:35.234Z,10.79
2022-11-26T17:24:24.672Z,10.89
2022-11-26T17:27:15.499Z,10.88
2022-11-26T17:30:00.676Z,10.80
2022-11-26T17:32:45.797Z,10.89
2022-11-26T17:35:31.209Z,10.93
2022-11-26T17:38:21.815Z,10.93
2022-11-26T17:41:07.355Z,10.92
2022-11-26T17:43:52.644Z,10.93
2022-11-26T17:47:00.861Z,10.85
2022-11-26T17:49:42.434Z,10.94
2022-11-26T17:52:27.842Z,10.86
2022-11-26T17:55:13.557Z,10.84
2022-11-26T17:57:58.794Z,10.94
2022-11-26T18:00:43.867Z,10.95
2022-11-26T18:03:29.135Z,10.95
2022-11-26T18:06:35.851Z,10.95
2022-11-26T18:09:21.186Z,10.88
2022-11-26T18:12:08.248Z,10.96
2022-11-26T18:14:54.865Z,10.97
2022-11-26T18:17:39.805Z,10.96
2022-11-26T18:20:27.988Z,10.98
2022-11-26T18:23:13.428Z,10.94
2022-11-26T18:25:58.516Z,10.94
2022-11-26T18:28:43.513Z,10.87
2022-11-26T18:31:29.816Z,10.93
2022-11-26T18:34:14.853Z,10.87
2022-11-26T18:37:00.293Z,10.91
2022-11-26T18:39:45.542Z,10.90
2022-11-26T18:42:38.592Z,10.86
2022-11-26T18:45:24.063Z,10.87
2022-11-26T18:48:09.249Z,10.82
2022-11-26T18:50:58.110Z,10.79
2022-11-26T18:53:44.885Z,10.74
2022-11-26T18:56:29.804Z,10.82
2022-11-26T18:59:15.386Z,10.86
2022-11-26T19:02:01.322Z,10.77
2022-11-26T19:04:46.469Z,10.87
2022-11-26T19:07:33.135Z,10.86
2022-11-26T19:10:18.256Z,10.85
2022-11-26T19:13:03.994Z,10.84
2022-11-26T19:15:49.190Z,10.82
2022-11-26T19:18:35.200Z,10.84
2022-11-26T19:21:25.714Z,10.82
2022-11-26T19:24:11.596Z,10.82
2022-11-26T19:26:56.951Z,10.79
2022-11-26T19:29:42.380Z,10.72
2022-11-26T19:32:28.494Z,10.69
2022-11-26T19:35:13.974Z,10.76
2022-11-26T19:37:59.001Z,10.68
2022-11-26T19:40:44.207Z,10.74
2022-11-26T19:43:32.732Z,10.74
2022-11-26T19:46:21.480Z,10.76
2022-11-26T19:49:07.287Z,10.73
2022-11-26T19:51:53.277Z,10.75
2022-11-26T19:54:38.315Z,10.71
2022-11-26T19:57:23.208Z,10.71
2022-11-26T20:00:09.583Z,10.60
2022-11-26T20:02:54.713Z,10.68
2022-11-26T20:05:40.641Z,10.70
2022-11-26T20:08:25.547Z,10.69
2022-11-26T20:11:11.165Z,10.70
2022-11-26T20:13:57.500Z,10.71
2022-11-26T20:16:44.978Z,10.72
2022-11-26T20:19:30.059Z,10.60
2022-11-26T20:22:15.304Z,10.60
2022-11-26T20:25:00.275Z,10.74
2022-11-26T20:27:45.722Z,10.74
2022-11-26T20:30:31.524Z,10.65
2022-11-26T20:33:18.872Z,10.72
2022-11-26T20:36:09.248Z,10.74
2022-11-26T20:38:56.114Z,10.75
2022-11-26T20:41:41.386Z,10.75
2022-11-26T20:44:28.490Z,10.65
2022-11-26T20:47:13.746Z,10.80
2022-11-26T20:49:59.037Z,10.72
2022-11-26T20:52:44.002Z,10.80
2022-11-26T20:55:29.174Z,10.81
2022-11-26T20:58:14.557Z,10.74
2022-11-26T21:01:01.319Z,10.86
2022-11-26T21:03:46.946Z,10.81
2022-11-26T21:06:34.842Z,10.85
2022-11-26T21:09:20.408Z,10.88
2022-11-26T21:12:05.688Z,10.82
2022-11-26T21:14:51.394Z,10.89
2022-11-26T21:17:36.479Z,10.90
2022-11-26T21:20:21.844Z,10.90
2022-11-26T21:23:08.708Z,10.91
2022-11-26T21:25:54.276Z,10.92
2022-11-26T21:28:39.568Z,10.93
2022-11-26T21:31:26.541Z,10.93
2022-11-26T21:34:12.108Z,10.94
2022-11-26T21:36:57.269Z,10.96
2022-11-26T21:39:42.312Z,10.88
2022-11-26T21:42:27.468Z,10.88
2022-11-26T21:45:12.607Z,10.96
2022-11-26T21:47:57.846Z,10.97
2022-11-26T21:50:42.978Z,10.91
2022-11-26T21:53:27.952Z,10.96
2022-11-26T21:56:14.267Z,10.97
2022-11-26T21:59:00.819Z,10.96
2022-11-26T22:01:47.293Z,10.91
2022-11-26T22:04:32.670Z,10.87
2022-11-26T22:07:18.568Z,10.96
2022-11-26T22:10:04.192Z,10.95
2022-11-26T22:12:49.073Z,10.95
2022-11-26T22:15:34.192Z,10.93
2022-11-26T22:18:19.426Z,10.85
2022-11-26T22:21:07.302Z,10.86
2022-11-26T22:23:52.563Z,10.97
2022-11-26T22:26:38.024Z,10.88
2022-11-26T22:29:22.981Z,10.94
2022-11-26T22:32:09.795Z,10.97
2022-11-26T22:34:55.147Z,10.96
2022-11-26T22:37:40.541Z,10.95
2022-11-26T22:40:25.746Z,10.95
2022-11-26T22:43:10.900Z,10.95
2022-11-26T22:45:56.244Z,10.96
2022-11-26T22:48:42.176Z,10.78
2022-11-26T22:51:29.573Z,10.95
2022-11-26T22:54:16.353Z,10.93
2022-11-26T22:57:01.327Z,10.93
2022-11-26T22:59:46.619Z,10.94
2022-11-26T23:02:31.473Z,10.93
2022-11-26T23:05:16.519Z,10.93
2022-11-26T23:08:01.715Z,10.90
2022-11-26T23:10:48.414Z,10.79
2022-11-26T23:13:34.071Z,10.81
2022-11-26T23:16:21.677Z,10.77
2022-11-26T23:19:07.611Z,10.67
2022-11-26T23:21:52.725Z,10.60
2022-11-26T23:24:37.766Z,10.53
2022-11-26T23:27:22.760Z,10.45
2022-11-26T23:30:08.811Z,10.29
2022-11-26T23:32:53.786Z,10.31
2022-11-26T23:35:38.973Z,10.22
2022-11-26T23:38:24.317Z,10.15
2022-11-26T23:41:09.442Z,10.11
2022-11-26T23:43:54.710Z,10.05
2022-11-26T23:46:40.165Z,10.07
2022-11-26T23:49:24.955Z,10.02
2022-11-26T23:52:10.722Z,10.02
2022-11-26T23:54:56.940Z,9.99
2022-11-26T23:57:41.911Z,10.00
